createdAt,value
2018-09-25T00:00:56.092Z,77.43
2018-09-25T00:03:29.802Z,77.27
2018-09-25T00:06:03.349Z,77.76
2018-09-25T00:08:37.064Z,77.69
2018-09-25T00:11:12.696Z,77.81
2018-09-25T00:13:46.152Z,77.95
2018-09-25T00:16:19.844Z,78.15
2018-09-25T00:18:53.513Z,77.70
2018-09-25T00:21:27.382Z,77.99
2018-09-25T00:24:00.792Z,77.90
2018-09-25T00:26:34.512Z,78.25
2018-09-25T00:29:07.933Z,78.11
2018-09-25T00:31:41.649Z,78.39
2018-09-25T00:34:15.298Z,77.66
2018-09-25T00:36:48.860Z,77.42
2018-09-25T00:39:22.633Z,77.74
2018-09-25T00:41:56.270Z,76.78
2018-09-25T00:44:29.698Z,76.81
2018-09-25T00:47:03.563Z,77.53
2018-09-25T00:49:37.076Z,76.27
2018-09-25T00:52:10.629Z,76.15
2018-09-25T00:54:44.193Z,76.22
2018-09-25T00:57:17.698Z,76.44
2018-09-25T00:59:51.272Z,76.24
2018-09-25T01:02:24.872Z,76.03
2018-09-25T01:04:58.329Z,76.25
2018-09-25T01:07:31.944Z,75.61
2018-09-25T01:10:11.916Z,75.91
2018-09-25T01:12:45.668Z,76.08
2018-09-25T01:15:19.096Z,75.82
2018-09-25T01:17:52.556Z,75.70
2018-09-25T01:20:26.240Z,75.84
2018-09-25T01:23:00.013Z,75.40
2018-09-25T01:25:33.450Z,75.74
2018-09-25T01:28:07.036Z,75.35
2018-09-25T01:30:40.662Z,75.51
2018-09-25T01:33:14.172Z,75.80
2018-09-25T01:35:47.893Z,76.03
2018-09-25T01:38:21.634Z,75.79
2018-09-25T01:40:55.301Z,76.22
2018-09-25T01:43:28.927Z,75.92
2018-09-25T01:46:02.667Z,76.36
2018-09-25T01:48:36.540Z,76.36
2018-09-25T01:51:10.025Z,76.44
2018-09-25T01:53:43.742Z,76.74
2018-09-25T01:56:17.433Z,77.19
2018-09-25T01:58:51.258Z,76.74
2018-09-25T02:01:24.749Z,76.80
2018-09-25T02:03:58.433Z,75.98
2018-09-25T02:06:37.804Z,75.71
2018-09-25T02:09:12.015Z,76.24
2018-09-25T02:11:45.746Z,75.85
2018-09-25T02:14:19.347Z,76.79
2018-09-25T02:16:52.808Z,76.91
2018-09-25T02:19:26.576Z,77.34
2018-09-25T02:22:00.088Z,77.17
2018-09-25T02:24:33.565Z,77.57
2018-09-25T02:27:07.021Z,78.00
2018-09-25T02:29:40.769Z,78.68
2018-09-25T02:32:14.237Z,78.20
2018-09-25T02:34:47.733Z,78.35
2018-09-25T02:37:21.195Z,79.49
2018-09-25T02:39:54.992Z,79.64
2018-09-25T02:42:28.505Z,78.97
2018-09-25T02:45:01.994Z,79.03
2018-09-25T02:47:35.668Z,79.43
2018-09-25T02:50:10.432Z,78.65
2018-09-25T02:52:43.872Z,78.48
2018-09-25T02:55:17.633Z,78.46
2018-09-25T02:57:51.065Z,78.18
2018-09-25T03:00:24.800Z,78.36
2018-09-25T03:02:58.489Z,78.65
2018-09-25T03:05:31.976Z,78.77
2018-09-25T03:08:05.402Z,79.14
2018-09-25T03:10:38.825Z,79.19
2018-09-25T03:13:12.521Z,79.42
2018-09-25T03:15:46.236Z,78.53
2018-09-25T03:18:19.999Z,78.16
2018-09-25T03:20:53.748Z,78.19
2018-09-25T03:23:28.442Z,78.84
2018-09-25T03:26:01.905Z,78.58
2018-09-25T03:28:35.648Z,78.40
2018-09-25T03:31:09.398Z,78.06
2018-09-25T03:33:43.040Z,78.72
2018-09-25T03:36:16.935Z,78.03
2018-09-25T03:38:50.545Z,78.34
2018-09-25T03:41:24.074Z,79.03
2018-09-25T03:43:57.533Z,79.27
2018-09-25T03:46:31.356Z,79.14
2018-09-25T03:49:04.812Z,78.99
2018-09-25T03:51:39.016Z,78.48
2018-09-25T03:54:12.556Z,79.17
2018-09-25T03:56:46.050Z,78.14
2018-09-25T03:59:19.812Z,78.27
2018-09-25T04:01:53.324Z,78.71
2018-09-25T04:04:27.044Z,78.42
2018-09-25T04:07:00.693Z,77.60
2018-09-25T04:09:34.436Z,78.55
2018-09-25T04:12:08.176Z,78.97
2018-09-25T04:14:41.572Z,78.72
2018-09-25T04:17:15.232Z,78.65
2018-09-25T04:19:48.700Z,77.91
2018-09-25T04:22:22.184Z,77.99
2018-09-25T04:24:55.608Z,77.59
2018-09-25T04:27:29.372Z,77.63
2018-09-25T04:30:02.805Z,77.43
2018-09-25T04:32:36.305Z,77.84
2018-09-25T04:35:10.082Z,77.90
2018-09-25T04:37:43.675Z,78.20
2018-09-25T04:40:17.400Z,78.30
2018-09-25T04:42:51.176Z,77.96
2018-09-25T04:45:24.910Z,77.75
2018-09-25T04:47:58.418Z,78.53
2018-09-25T04:50:32.140Z,78.52
2018-09-25T04:53:05.828Z,78.47
2018-09-25T04:55:39.547Z,78.52
2018-09-25T04:58:13.067Z,78.42
2018-09-25T05:00:46.703Z,78.28
2018-09-25T05:03:20.351Z,78.08
2018-09-25T05:05:54.043Z,77.83
2018-09-25T05:08:27.627Z,78.68
2018-09-25T05:11:01.027Z,77.75
2018-09-25T05:13:34.716Z,77.94
2018-09-25T05:16:09.139Z,77.70
2018-09-25T05:18:42.942Z,77.30
2018-09-25T05:21:16.380Z,76.85
2018-09-25T05:23:49.986Z,77.02
2018-09-25T05:26:23.743Z,77.01
2018-09-25T05:28:57.469Z,76.55
2018-09-25T05:31:31.148Z,76.10
2018-09-25T05:34:04.891Z,73.78
2018-09-25T05:36:38.584Z,75.27
2018-09-25T05:39:13.960Z,75.42
2018-09-25T05:41:48.425Z,75.66
2018-09-25T05:44:21.925Z,75.34
2018-09-25T05:46:55.432Z,75.08
2018-09-25T05:49:29.149Z,75.48
2018-09-25T05:52:02.689Z,75.41
2018-09-25T05:54:37.065Z,75.37
2018-09-25T05:57:10.580Z,74.37
2018-09-25T05:59:44.037Z,74.95
2018-09-25T06:02:17.425Z,74.91
2018-09-25T06:04:51.204Z,74.84
2018-09-25T06:07:25.012Z,74.22
2018-09-25T06:09:58.878Z,73.25
2018-09-25T06:12:32.499Z,73.76
2018-09-25T06:15:06.204Z,73.96
2018-09-25T06:17:40.884Z,72.93
2018-09-25T06:20:14.261Z,72.93
2018-09-25T06:22:47.995Z,71.90
2018-09-25T06:25:21.669Z,71.55
2018-09-25T06:27:55.133Z,72.07
2018-09-25T06:30:28.791Z,72.01
2018-09-25T06:33:02.545Z,72.39
2018-09-25T06:35:36.008Z,72.76
2018-09-25T06:38:09.477Z,72.18
2018-09-25T06:40:44.113Z,71.48
2018-09-25T06:43:17.812Z,70.52
2018-09-25T06:45:51.285Z,70.61
2018-09-25T06:48:24.853Z,71.16
2018-09-25T06:50:58.502Z,69.89
2018-09-25T06:53:31.958Z,69.27
2018-09-25T06:56:05.460Z,68.61
2018-09-25T06:58:39.216Z,68.56
2018-09-25T07:01:12.957Z,67.78
2018-09-25T07:03:46.435Z,67.88
2018-09-25T07:06:20.001Z,67.30
2018-09-25T07:08:53.668Z,67.17
2018-09-25T07:11:27.344Z,66.65
2018-09-25T07:14:01.033Z,65.49
2018-09-25T07:16:34.502Z,65.39
2018-09-25T07:19:08.341Z,65.65
2018-09-25T07:21:42.065Z,64.70
2018-09-25T07:24:15.781Z,63.75
2018-09-25T07:26:49.432Z,63.72
2018-09-25T07:29:23.209Z,63.28
2018-09-25T07:31:56.928Z,61.10
2018-09-25T07:34:30.487Z,59.10
2018-09-25T07:37:04.124Z,59.90
2018-09-25T07:39:37.882Z,60.49
2018-09-25T07:42:11.653Z,60.82
2018-09-25T07:44:45.128Z,60.48
2018-09-25T07:47:18.722Z,61.12
2018-09-25T07:49:52.176Z,59.83
2018-09-25T07:52:25.752Z,60.18
2018-09-25T07:54:59.360Z,59.29
2018-09-25T07:57:32.842Z,59.51
2018-09-25T08:00:06.371Z,57.84
2018-09-25T08:02:39.920Z,60.01
2018-09-25T08:05:13.661Z,60.13
2018-09-25T08:07:47.360Z,58.97
2018-09-25T08:10:21.051Z,58.48
2018-09-25T08:12:54.496Z,57.59
2018-09-25T08:15:28.060Z,58.10
2018-09-25T08:18:01.453Z,57.89
2018-09-25T08:20:35.172Z,58.15
2018-09-25T08:23:08.588Z,57.08
2018-09-25T08:25:42.349Z,56.33
2018-09-25T08:28:16.277Z,56.48
2018-09-25T08:30:49.752Z,55.16
2018-09-25T08:33:23.560Z,53.81
2018-09-25T08:35:57.301Z,53.61
2018-09-25T08:38:31.086Z,53.04
2018-09-25T08:41:04.820Z,53.00
2018-09-25T08:43:38.565Z,53.82
2018-09-25T08:46:12.654Z,53.87
2018-09-25T08:48:46.080Z,52.68
2018-09-25T08:51:19.713Z,52.68
2018-09-25T08:53:53.249Z,50.49
2018-09-25T08:56:26.752Z,49.20
2018-09-25T08:59:00.492Z,48.66
2018-09-25T09:01:33.984Z,49.38
2018-09-25T09:04:07.561Z,47.72
2018-09-25T09:06:41.027Z,48.48
2018-09-25T09:09:15.212Z,49.33
2018-09-25T09:11:49.604Z,47.86
2018-09-25T09:14:23.156Z,47.52
2018-09-25T09:16:56.845Z,47.41
2018-09-25T09:19:30.310Z,47.84
2018-09-25T09:22:03.857Z,46.62
2018-09-25T09:24:37.540Z,46.26
2018-09-25T09:27:11.263Z,46.22
2018-09-25T09:29:44.744Z,46.39
2018-09-25T09:32:18.452Z,47.52
2018-09-25T09:34:51.934Z,47.05
2018-09-25T09:37:25.637Z,46.73
2018-09-25T09:39:59.343Z,46.85
2018-09-25T09:42:32.802Z,44.53
2018-09-25T09:45:06.305Z,45.17
2018-09-25T09:47:39.981Z,46.09
2018-09-25T09:50:13.619Z,46.25
2018-09-25T09:52:47.349Z,45.19
2018-09-25T09:55:20.832Z,44.62
2018-09-25T09:57:54.460Z,45.30
2018-09-25T10:00:27.937Z,45.99
2018-09-25T10:03:01.398Z,46.20
2018-09-25T10:05:34.860Z,46.01
2018-09-25T10:08:08.613Z,46.82
2018-09-25T10:10:42.352Z,44.94
2018-09-25T10:13:16.072Z,46.02
2018-09-25T10:15:49.544Z,44.88
2018-09-25T10:18:23.005Z,46.65
2018-09-25T10:20:56.737Z,46.73
2018-09-25T10:23:30.517Z,45.15
2018-09-25T10:26:04.255Z,44.95
2018-09-25T10:28:37.983Z,45.31
2018-09-25T10:31:11.736Z,46.28
2018-09-25T10:33:45.267Z,46.79
2018-09-25T10:36:18.941Z,46.17
2018-09-25T10:38:52.642Z,46.21
2018-09-25T10:41:26.309Z,46.55
2018-09-25T10:44:00.003Z,47.68
2018-09-25T10:46:40.541Z,47.42
2018-09-25T10:49:14.016Z,47.93
2018-09-25T10:51:47.754Z,47.28
2018-09-25T10:54:21.253Z,47.40
2018-09-25T10:56:54.961Z,46.30
2018-09-25T10:59:28.614Z,44.97
2018-09-25T11:02:02.192Z,44.03
2018-09-25T11:04:35.904Z,43.80
2018-09-25T11:07:09.617Z,44.23
2018-09-25T11:09:43.089Z,44.06
2018-09-25T11:12:16.600Z,44.79
2018-09-25T11:14:50.325Z,45.86
2018-09-25T11:17:24.075Z,46.66
2018-09-25T11:19:57.813Z,45.37
2018-09-25T11:22:31.269Z,46.34
2018-09-25T11:25:05.046Z,46.88
2018-09-25T11:27:38.550Z,46.92
2018-09-25T11:30:12.683Z,46.17
2018-09-25T11:32:46.142Z,43.88
2018-09-25T11:35:19.836Z,43.58
2018-09-25T11:37:53.520Z,45.44
2018-09-25T11:40:27.265Z,45.26
2018-09-25T11:43:00.733Z,44.81
2018-09-25T11:45:34.189Z,44.33
2018-09-25T11:48:07.725Z,43.81
2018-09-25T11:50:41.376Z,42.94
2018-09-25T11:53:15.070Z,43.10
2018-09-25T11:55:48.801Z,43.33
2018-09-25T11:58:22.521Z,44.30
2018-09-25T12:00:56.205Z,44.05
2018-09-25T12:03:29.768Z,44.57
2018-09-25T12:06:03.240Z,43.24
2018-09-25T12:08:37.333Z,43.29
2018-09-25T12:11:10.969Z,42.72
2018-09-25T12:13:44.849Z,43.98
2018-09-25T12:16:18.569Z,44.22
2018-09-25T12:18:52.221Z,44.01
2018-09-25T12:21:25.927Z,43.95
2018-09-25T12:23:59.661Z,42.82
2018-09-25T12:26:33.412Z,45.03
2018-09-25T12:29:07.125Z,46.18
2018-09-25T12:31:40.673Z,47.33
2018-09-25T12:34:14.354Z,47.55
2018-09-25T12:36:47.889Z,48.05
2018-09-25T12:39:21.612Z,46.86
2018-09-25T12:41:55.326Z,46.46
2018-09-25T12:44:29.124Z,46.77
2018-09-25T12:47:09.153Z,46.83
2018-09-25T12:49:42.708Z,47.25
2018-09-25T12:52:16.246Z,46.47
2018-09-25T12:54:49.941Z,45.94
2018-09-25T12:57:23.661Z,45.26
2018-09-25T12:59:57.344Z,46.03
2018-09-25T13:02:30.775Z,44.62
2018-09-25T13:05:04.433Z,44.40
2018-09-25T13:07:37.900Z,44.72
2018-09-25T13:10:11.625Z,44.95
2018-09-25T13:12:46.309Z,45.65
2018-09-25T13:15:20.000Z,46.15
2018-09-25T13:17:54.436Z,47.54
2018-09-25T13:20:27.888Z,48.88
2018-09-25T13:23:01.677Z,47.83
2018-09-25T13:25:35.480Z,47.76
2018-09-25T13:28:08.953Z,46.30
2018-09-25T13:30:42.461Z,45.83
2018-09-25T13:33:16.268Z,43.11
2018-09-25T13:35:49.970Z,43.19
2018-09-25T13:38:23.759Z,45.08
2018-09-25T13:40:57.488Z,45.13
2018-09-25T13:43:31.165Z,45.29
2018-09-25T13:46:04.709Z,45.58
2018-09-25T13:48:38.477Z,46.11
2018-09-25T13:51:12.033Z,45.09
2018-09-25T13:53:45.764Z,44.62
2018-09-25T13:56:19.445Z,45.63
2018-09-25T13:58:53.149Z,47.06
2018-09-25T14:01:26.596Z,47.55
2018-09-25T14:04:00.337Z,47.49
2018-09-25T14:06:33.852Z,47.81
2018-09-25T14:09:07.578Z,47.48
2018-09-25T14:11:44.553Z,46.43
2018-09-25T14:14:18.146Z,46.69
2018-09-25T14:16:51.928Z,48.28
2018-09-25T14:19:25.416Z,48.39
2018-09-25T14:21:58.985Z,49.84
2018-09-25T14:24:32.412Z,50.91
2018-09-25T14:27:05.886Z,49.92
2018-09-25T14:29:39.416Z,48.73
2018-09-25T14:32:13.273Z,48.31
2018-09-25T14:34:46.734Z,47.46
2018-09-25T14:37:20.481Z,49.06
2018-09-25T14:39:54.161Z,48.41
2018-09-25T14:42:27.849Z,49.20
2018-09-25T14:45:01.486Z,49.82
2018-09-25T14:47:35.107Z,49.34
2018-09-25T14:50:08.812Z,50.39
2018-09-25T14:52:42.512Z,50.19
2018-09-25T14:55:16.973Z,51.02
2018-09-25T14:57:50.423Z,50.94
2018-09-25T15:00:23.897Z,50.96
2018-09-25T15:02:57.589Z,50.22
2018-09-25T15:05:31.264Z,48.99
2018-09-25T15:08:04.975Z,46.75
2018-09-25T15:10:38.431Z,47.33
2018-09-25T15:13:12.053Z,49.05
2018-09-25T15:15:45.745Z,48.93
2018-09-25T15:18:19.344Z,48.72
2018-09-25T15:20:52.825Z,51.10
2018-09-25T15:23:26.278Z,51.13
2018-09-25T15:25:59.751Z,50.74
2018-09-25T15:28:33.524Z,49.98
2018-09-25T15:31:07.317Z,44.06
2018-09-25T15:33:41.124Z,38.43
2018-09-25T15:36:14.604Z,33.83
2018-09-25T15:41:38.331Z,32.54
2018-09-25T15:44:12.519Z,35.45
2018-09-25T15:46:46.015Z,38.14
2018-09-25T15:49:19.536Z,42.41
2018-09-25T15:51:53.008Z,45.39
2018-09-25T15:54:26.773Z,47.52
2018-09-25T15:57:00.541Z,49.09
2018-09-25T15:59:34.125Z,50.74
2018-09-25T16:02:07.889Z,51.62
2018-09-25T16:04:41.609Z,52.69
2018-09-25T16:07:15.356Z,53.76
2018-09-25T16:09:48.845Z,54.83
2018-09-25T16:12:22.565Z,54.20
2018-09-25T16:14:56.281Z,54.96
2018-09-25T16:17:30.172Z,54.89
2018-09-25T16:20:03.641Z,54.97
2018-09-25T16:22:37.276Z,55.21
2018-09-25T16:25:11.363Z,55.98
2018-09-25T16:27:45.111Z,56.08
2018-09-25T16:30:18.828Z,56.31
2018-09-25T16:32:52.565Z,56.51
2018-09-25T16:35:26.224Z,56.38
2018-09-25T16:38:00.131Z,57.00
2018-09-25T16:40:33.585Z,56.89
2018-09-25T16:43:07.207Z,57.25
2018-09-25T16:45:40.894Z,56.89
2018-09-25T16:48:14.521Z,57.83
2018-09-25T16:50:48.012Z,58.42
2018-09-25T16:53:21.481Z,58.31
2018-09-25T16:55:54.937Z,58.45
2018-09-25T16:58:28.661Z,58.49
2018-09-25T17:01:02.353Z,58.62
2018-09-25T17:03:36.103Z,58.37
2018-09-25T17:06:09.537Z,58.20
2018-09-25T17:08:43.029Z,58.65
2018-09-25T17:11:16.468Z,58.96
2018-09-25T17:13:49.976Z,59.02
2018-09-25T17:16:23.525Z,59.39
2018-09-25T17:18:57.108Z,59.53
2018-09-25T17:21:30.521Z,59.62
2018-09-25T17:24:04.401Z,59.88
2018-09-25T17:26:38.705Z,60.28
2018-09-25T17:29:13.082Z,60.00
2018-09-25T17:31:46.772Z,60.00
2018-09-25T17:34:20.212Z,60.29
2018-09-25T17:36:53.661Z,60.62
2018-09-25T17:39:27.385Z,60.42
2018-09-25T17:42:00.840Z,60.82
2018-09-25T17:44:34.495Z,61.00
2018-09-25T17:47:07.977Z,61.33
2018-09-25T17:49:41.849Z,62.24
2018-09-25T17:52:15.514Z,62.04
2018-09-25T17:54:49.143Z,62.46
2018-09-25T17:57:22.844Z,62.47
2018-09-25T17:59:56.661Z,62.72
2018-09-25T18:02:30.433Z,63.34
2018-09-25T18:05:04.272Z,63.24
2018-09-25T18:07:37.949Z,63.42
2018-09-25T18:10:11.981Z,63.76
2018-09-25T18:12:45.552Z,63.94
2018-09-25T18:15:19.057Z,64.38
2018-09-25T18:17:52.857Z,64.85
2018-09-25T18:20:26.325Z,65.14
2018-09-25T18:22:59.801Z,65.55
2018-09-25T18:25:33.329Z,65.70
2018-09-25T18:28:06.827Z,66.13
2018-09-25T18:30:40.577Z,66.19
2018-09-25T18:33:14.225Z,66.49
2018-09-25T18:35:47.785Z,66.89
2018-09-25T18:38:21.437Z,67.03
2018-09-25T18:40:55.552Z,67.08
2018-09-25T18:43:29.311Z,66.82
2018-09-25T18:46:03.025Z,67.30
2018-09-25T18:48:36.957Z,67.40
2018-09-25T18:51:10.644Z,68.10
2018-09-25T18:53:44.261Z,68.48
2018-09-25T18:56:18.036Z,68.33
2018-09-25T18:58:51.576Z,68.51
2018-09-25T19:01:25.358Z,68.34
2018-09-25T19:03:58.756Z,68.86
2018-09-25T19:06:32.484Z,68.96
2018-09-25T19:09:05.860Z,68.58
2018-09-25T19:11:39.848Z,68.95
2018-09-25T19:14:14.276Z,68.70
2018-09-25T19:16:47.725Z,68.88
2018-09-25T19:19:21.223Z,69.09
2018-09-25T19:21:54.768Z,69.28
2018-09-25T19:24:28.443Z,69.69
2018-09-25T19:27:02.179Z,70.10
2018-09-25T19:29:35.596Z,69.76
2018-09-25T19:32:09.293Z,69.80
2018-09-25T19:34:43.044Z,70.36
2018-09-25T19:37:16.693Z,70.12
2018-09-25T19:39:50.257Z,70.43
2018-09-25T19:42:23.980Z,70.48
2018-09-25T19:44:57.749Z,70.76
2018-09-25T19:47:31.189Z,70.75
2018-09-25T19:50:04.962Z,70.73
2018-09-25T19:52:38.672Z,71.00
2018-09-25T19:55:12.345Z,70.75
2018-09-25T19:57:46.089Z,71.65
2018-09-25T20:00:19.791Z,71.37
2018-09-25T20:02:53.601Z,71.07
2018-09-25T20:05:27.388Z,71.32
2018-09-25T20:08:00.864Z,71.11
2018-09-25T20:10:34.597Z,71.13
2018-09-25T20:13:08.458Z,71.78
2018-09-25T20:15:41.936Z,71.59
2018-09-25T20:18:15.564Z,71.78
2018-09-25T20:20:49.074Z,71.62
2018-09-25T20:23:22.909Z,71.60
2018-09-25T20:25:56.723Z,71.98
2018-09-25T20:28:30.333Z,72.14
2018-09-25T20:31:03.864Z,71.98
2018-09-25T20:33:37.314Z,72.59
2018-09-25T20:36:10.904Z,72.35
2018-09-25T20:38:44.700Z,72.36
2018-09-25T20:41:18.135Z,71.71
2018-09-25T20:43:51.885Z,71.70
2018-09-25T20:46:25.480Z,72.73
2018-09-25T20:48:59.366Z,72.72
2018-09-25T20:51:33.115Z,72.72
2018-09-25T20:54:06.605Z,72.65
2018-09-25T20:56:40.316Z,72.30
2018-09-25T20:59:13.988Z,72.45
2018-09-25T21:01:47.752Z,72.46
2018-09-25T21:04:21.456Z,72.42
2018-09-25T21:06:55.066Z,72.87
2018-09-25T21:09:28.818Z,72.21
2018-09-25T21:12:02.336Z,72.97
2018-09-25T21:14:35.812Z,73.00
2018-09-25T21:17:09.592Z,72.88
2018-09-25T21:19:43.384Z,72.70
2018-09-25T21:22:16.896Z,73.05
2018-09-25T21:24:50.648Z,73.67
2018-09-25T21:27:24.080Z,73.26
2018-09-25T21:29:57.855Z,72.93
2018-09-25T21:32:31.597Z,73.09
2018-09-25T21:35:05.117Z,73.08
2018-09-25T21:37:38.860Z,73.37
2018-09-25T21:40:12.507Z,73.63
2018-09-25T21:42:45.913Z,73.61
2018-09-25T21:45:19.784Z,73.39
2018-09-25T21:47:53.228Z,73.53
2018-09-25T21:50:27.083Z,73.20
2018-09-25T21:53:00.749Z,73.71
2018-09-25T21:55:34.256Z,73.63
2018-09-25T21:58:08.027Z,73.83
2018-09-25T22:00:41.796Z,73.85
2018-09-25T22:03:15.209Z,74.01
2018-09-25T22:05:48.654Z,73.99
2018-09-25T22:08:22.149Z,73.73
2018-09-25T22:10:55.776Z,73.75
2018-09-25T22:13:29.352Z,73.12
2018-09-25T22:16:03.325Z,73.80
2018-09-25T22:18:37.117Z,73.66
2018-09-25T22:21:11.110Z,74.67
2018-09-25T22:23:44.821Z,74.35
2018-09-25T22:26:18.510Z,74.45
2018-09-25T22:28:52.208Z,74.51
2018-09-25T22:31:25.885Z,74.60
2018-09-25T22:33:59.601Z,74.62
2018-09-25T22:36:33.268Z,74.30
2018-09-25T22:39:06.833Z,74.87
2018-09-25T22:41:40.248Z,74.46
2018-09-25T22:44:13.825Z,74.08
2018-09-25T22:46:47.516Z,74.53
2018-09-25T22:49:21.088Z,74.15
2018-09-25T22:51:54.776Z,73.94
2018-09-25T22:54:28.216Z,74.52
2018-09-25T22:57:01.716Z,74.17
2018-09-25T22:59:35.556Z,74.79
2018-09-25T23:02:09.324Z,74.37
2018-09-25T23:04:42.823Z,73.78
2018-09-25T23:07:16.307Z,73.43
2018-09-25T23:09:50.052Z,73.63
2018-09-25T23:12:23.716Z,73.63
2018-09-25T23:14:57.212Z,74.06
2018-09-25T23:17:30.698Z,74.32
2018-09-25T23:20:04.421Z,74.42
2018-09-25T23:22:38.020Z,74.51
2018-09-25T23:25:11.787Z,74.89
2018-09-25T23:27:45.242Z,74.82
2018-09-25T23:30:19.026Z,74.84
2018-09-25T23:32:52.736Z,74.47
2018-09-25T23:35:26.303Z,74.84
2018-09-25T23:37:59.968Z,75.25
2018-09-25T23:40:37.295Z,75.50
2018-09-25T23:43:14.624Z,75.50
2018-09-25T23:45:51.000Z,75.30
2018-09-25T23:48:25.572Z,75.69
2018-09-25T23:50:59.336Z,75.50
2018-09-25T23:53:32.652Z,75.81
2018-09-25T23:56:08.601Z,75.67
2018-09-25T23:58:41.307Z,75.66
